createdAt,value
2022-11-30T00:00:24.175Z,1.70
2022-11-30T00:02:55.878Z,1.60
2022-11-30T00:05:25.186Z,1.70
2022-11-30T00:07:54.587Z,1.70
2022-11-30T00:10:23.953Z,1.50
2022-11-30T00:12:52.873Z,1.50
2022-11-30T00:15:22.153Z,1.40
2022-11-30T00:17:51.864Z,1.40
2022-11-30T00:20:22.244Z,1.40
2022-11-30T00:22:51.928Z,2.40
2022-11-30T00:25:20.878Z,1.50
2022-11-30T00:27:49.547Z,1.30
2022-11-30T00:30:18.318Z,1.20
2022-11-30T00:32:47.029Z,1.20
2022-11-30T00:35:17.982Z,1.20
2022-11-30T00:37:48.082Z,1.20
2022-11-30T00:40:17.041Z,1.20
2022-11-30T00:42:46.251Z,1.20
2022-11-30T00:45:15.556Z,1.70
2022-11-30T00:47:44.466Z,1.10
2022-11-30T00:50:13.537Z,1.20
2022-11-30T00:52:42.675Z,1.20
2022-11-30T00:55:16.019Z,1.10
2022-11-30T00:57:44.763Z,1.10
2022-11-30T01:00:14.264Z,1.00
2022-11-30T01:02:43.198Z,1.00
2022-11-30T01:05:12.015Z,1.00
2022-11-30T01:07:40.992Z,1.10
2022-11-30T01:10:11.117Z,1.00
2022-11-30T01:12:41.825Z,1.00
2022-11-30T01:15:11.842Z,1.00
2022-11-30T01:17:40.707Z,0.90
2022-11-30T01:20:10.543Z,1.00
2022-11-30T01:22:39.541Z,0.90
2022-11-30T01:25:09.073Z,0.90
2022-11-30T01:27:37.946Z,0.80
2022-11-30T01:30:09.962Z,1.10
2022-11-30T01:32:41.055Z,0.80
2022-11-30T01:35:10.142Z,0.90
2022-11-30T01:37:39.271Z,0.80
2022-11-30T01:40:10.333Z,0.80
2022-11-30T01:42:39.137Z,0.80
2022-11-30T01:45:14.411Z,0.80
2022-11-30T01:47:48.084Z,0.80
2022-11-30T01:50:22.306Z,0.80
2022-11-30T01:52:54.136Z,0.80
2022-11-30T01:55:27.978Z,0.70
2022-11-30T01:58:00.471Z,0.70
2022-11-30T02:00:31.035Z,1.70
2022-11-30T02:03:04.226Z,0.80
2022-11-30T02:05:35.919Z,0.80
2022-11-30T02:08:05.536Z,0.70
2022-11-30T02:10:37.320Z,0.70
2022-11-30T02:13:34.897Z,0.70
2022-11-30T02:16:15.631Z,0.70
2022-11-30T02:18:52.772Z,0.70
2022-11-30T02:21:27.522Z,0.80
2022-11-30T02:24:32.352Z,0.80
2022-11-30T02:27:12.450Z,0.80
2022-11-30T02:29:49.071Z,0.70
2022-11-30T02:32:23.848Z,0.60
2022-11-30T02:34:54.085Z,0.60
2022-11-30T02:37:24.785Z,0.60
2022-11-30T02:39:56.070Z,0.60
2022-11-30T02:42:24.883Z,0.50
2022-11-30T02:44:56.072Z,-0.70
2022-11-30T02:47:29.693Z,0.50
2022-11-30T02:50:03.645Z,0.40
2022-11-30T02:52:33.941Z,0.50
2022-11-30T02:55:03.675Z,0.40
2022-11-30T02:57:32.749Z,0.40
2022-11-30T03:00:07.106Z,0.90
2022-11-30T03:02:39.680Z,0.30
2022-11-30T03:05:09.455Z,0.40
2022-11-30T03:07:38.562Z,0.40
2022-11-30T03:10:08.861Z,0.50
2022-11-30T03:12:38.274Z,0.50
2022-11-30T03:15:10.635Z,0.50
2022-11-30T03:17:39.381Z,0.40
2022-11-30T03:20:09.964Z,0.40
2022-11-30T03:22:39.905Z,0.30
2022-11-30T03:25:09.288Z,0.30
2022-11-30T03:27:38.731Z,0.30
2022-11-30T03:30:11.956Z,0.30
2022-11-30T03:32:41.010Z,0.30
2022-11-30T03:35:10.265Z,0.30
2022-11-30T03:37:39.642Z,0.20
2022-11-30T03:40:09.860Z,0.30
2022-11-30T03:42:38.630Z,0.20
2022-11-30T03:45:09.420Z,0.10
2022-11-30T03:47:38.787Z,0.20
2022-11-30T03:50:09.324Z,0.20
2022-11-30T03:52:38.060Z,0.20
2022-11-30T03:55:07.788Z,0.40
2022-11-30T03:57:36.547Z,0.20
2022-11-30T04:00:08.925Z,0.30
2022-11-30T04:02:44.669Z,0.20
2022-11-30T04:05:14.080Z,0.20
2022-11-30T04:07:43.098Z,0.20
2022-11-30T04:10:13.179Z,0.20
2022-11-30T04:12:42.322Z,0.20
2022-11-30T04:15:14.075Z,0.20
2022-11-30T04:17:43.002Z,0.20
2022-11-30T04:20:12.186Z,0.10
2022-11-30T04:22:40.959Z,0.10
2022-11-30T04:25:10.710Z,0.10
2022-11-30T04:27:39.556Z,0.10
2022-11-30T04:30:11.447Z,0.20
2022-11-30T04:32:42.521Z,0.20
2022-11-30T04:35:11.950Z,0.30
2022-11-30T04:37:40.670Z,0.20
2022-11-30T04:40:10.869Z,0.20
2022-11-30T04:42:40.095Z,0.10
2022-11-30T04:45:10.020Z,0.20
2022-11-30T04:47:41.078Z,0.20
2022-11-30T04:50:12.085Z,0.20
2022-11-30T04:52:40.892Z,0.20
2022-11-30T04:55:11.404Z,0.30
2022-11-30T04:57:46.060Z,0.20
2022-11-30T05:00:16.885Z,0.10
2022-11-30T05:02:52.141Z,0.10
2022-11-30T05:05:23.117Z,0.20
2022-11-30T05:07:51.964Z,0.10
2022-11-30T05:10:21.328Z,0.30
2022-11-30T05:12:52.450Z,0.10
2022-11-30T05:15:21.832Z,0.00
2022-11-30T05:17:50.515Z,0.00
2022-11-30T05:20:19.615Z,0.00
2022-11-30T05:22:50.553Z,0.00
2022-11-30T05:25:19.461Z,0.00
2022-11-30T05:27:48.602Z,0.10
2022-11-30T05:30:18.072Z,0.20
2022-11-30T05:32:46.859Z,0.20
2022-11-30T05:35:15.797Z,0.10
2022-11-30T05:37:44.531Z,0.20
2022-11-30T05:40:15.357Z,0.20
2022-11-30T05:42:45.237Z,0.50
2022-11-30T05:45:14.891Z,0.20
2022-11-30T05:47:43.820Z,0.20
2022-11-30T05:50:13.613Z,-0.20
2022-11-30T05:52:43.616Z,0.10
2022-11-30T05:55:14.180Z,0.10
2022-11-30T05:57:42.870Z,0.00
2022-11-30T06:00:12.888Z,0.00
2022-11-30T06:02:43.133Z,-0.10
2022-11-30T06:05:12.095Z,-0.10
2022-11-30T06:07:41.186Z,0.00
2022-11-30T06:10:14.272Z,-0.10
2022-11-30T06:12:48.515Z,-0.10
2022-11-30T06:15:17.416Z,-0.10
2022-11-30T06:17:47.172Z,-0.10
2022-11-30T06:20:16.470Z,-0.10
2022-11-30T06:22:47.394Z,-0.10
2022-11-30T06:25:17.386Z,-0.20
2022-11-30T06:27:47.514Z,-0.20
2022-11-30T06:30:19.328Z,-0.20
2022-11-30T06:32:48.839Z,-0.20
2022-11-30T06:35:18.834Z,-0.10
2022-11-30T06:37:47.902Z,-0.10
2022-11-30T06:40:17.388Z,-0.10
2022-11-30T06:42:48.380Z,-0.10
2022-11-30T06:45:17.353Z,0.00
2022-11-30T06:47:50.166Z,-0.10
2022-11-30T06:50:19.360Z,-0.10
2022-11-30T06:52:48.026Z,-0.10
2022-11-30T06:55:17.352Z,0.00
2022-11-30T06:57:47.923Z,0.00
2022-11-30T07:00:18.253Z,0.00
2022-11-30T07:02:47.468Z,0.00
2022-11-30T07:05:17.437Z,0.10
2022-11-30T07:07:49.233Z,0.10
2022-11-30T07:10:20.402Z,0.20
2022-11-30T07:12:51.388Z,0.00
2022-11-30T07:15:21.091Z,0.00
2022-11-30T07:17:50.211Z,0.00
2022-11-30T07:20:19.549Z,-0.10
2022-11-30T07:22:48.803Z,-0.10
2022-11-30T07:25:35.287Z,-0.10
2022-11-30T07:28:07.489Z,-0.10
2022-11-30T07:30:36.487Z,-0.10
2022-11-30T07:33:05.372Z,0.00
2022-11-30T07:35:34.542Z,0.00
2022-11-30T07:38:09.487Z,0.00
2022-11-30T07:40:42.385Z,0.00
2022-11-30T07:43:12.527Z,-0.10
2022-11-30T07:45:41.132Z,0.00
2022-11-30T07:48:10.583Z,-0.10
2022-11-30T07:50:39.460Z,0.00
2022-11-30T07:53:11.086Z,-0.10
2022-11-30T07:55:39.794Z,-0.10
2022-11-30T07:58:17.247Z,-0.10
2022-11-30T08:00:46.710Z,0.00
2022-11-30T08:03:15.671Z,0.00
2022-11-30T08:05:44.375Z,-0.10
2022-11-30T08:08:13.052Z,0.00
2022-11-30T08:10:41.800Z,-0.10
2022-11-30T08:13:10.375Z,0.00
2022-11-30T08:15:43.659Z,0.10
2022-11-30T08:18:12.631Z,0.20
2022-11-30T08:20:46.933Z,0.20
2022-11-30T08:23:18.414Z,0.20
2022-11-30T08:25:47.326Z,0.20
2022-11-30T08:28:15.987Z,0.10
2022-11-30T08:30:46.334Z,0.00
2022-11-30T08:33:15.332Z,0.00
2022-11-30T08:35:44.146Z,0.00
2022-11-30T08:38:13.254Z,0.00
2022-11-30T08:40:41.878Z,0.00
2022-11-30T08:43:10.573Z,0.00
2022-11-30T08:45:41.998Z,0.00
2022-11-30T08:48:12.304Z,0.00
2022-11-30T08:50:40.997Z,0.00
2022-11-30T08:53:09.609Z,0.10
2022-11-30T08:55:38.319Z,0.10
2022-11-30T08:58:07.001Z,0.10
2022-11-30T09:00:36.339Z,0.10
2022-11-30T09:03:05.394Z,0.20
2022-11-30T09:05:35.353Z,0.20
2022-11-30T09:08:04.101Z,0.20
2022-11-30T09:10:32.809Z,0.20
2022-11-30T09:13:01.633Z,0.30
2022-11-30T09:15:30.234Z,0.40
2022-11-30T09:17:59.730Z,0.50
2022-11-30T09:20:28.566Z,0.60
2022-11-30T09:23:00.770Z,0.50
2022-11-30T09:25:29.307Z,0.50
2022-11-30T09:27:58.021Z,0.70
2022-11-30T09:30:26.618Z,0.40
2022-11-30T09:32:55.261Z,1.40
2022-11-30T09:35:23.882Z,0.30
2022-11-30T09:37:53.787Z,0.30
2022-11-30T09:40:24.252Z,0.40
2022-11-30T09:43:03.654Z,0.50
2022-11-30T09:45:36.124Z,0.50
2022-11-30T09:48:26.876Z,0.40
2022-11-30T09:50:57.363Z,0.40
2022-11-30T09:53:39.629Z,0.30
2022-11-30T09:56:21.508Z,0.20
2022-11-30T09:58:56.730Z,0.20
2022-11-30T10:01:29.328Z,0.20
2022-11-30T10:04:01.675Z,0.20
2022-11-30T10:06:42.769Z,0.20
2022-11-30T10:09:27.313Z,0.30
2022-11-30T10:12:06.035Z,0.30
2022-11-30T10:15:13.502Z,0.40
2022-11-30T10:17:54.176Z,0.20
2022-11-30T10:20:46.393Z,0.30
2022-11-30T10:23:28.116Z,0.30
2022-11-30T10:25:59.244Z,0.70
2022-11-30T10:28:47.991Z,0.30
2022-11-30T10:31:18.183Z,0.30
2022-11-30T10:33:49.269Z,0.30
2022-11-30T10:36:26.880Z,0.40
2022-11-30T10:39:01.217Z,0.30
2022-11-30T10:41:35.046Z,0.30
2022-11-30T10:44:11.277Z,0.20
2022-11-30T10:46:44.593Z,0.30
2022-11-30T10:49:18.392Z,0.30
2022-11-30T10:51:52.491Z,0.20
2022-11-30T10:54:23.803Z,0.20
2022-11-30T10:56:52.652Z,0.20
2022-11-30T10:59:26.493Z,0.30
2022-11-30T11:01:55.373Z,0.30
2022-11-30T11:04:27.979Z,0.30
2022-11-30T11:06:59.358Z,0.40
2022-11-30T11:09:36.179Z,0.40
2022-11-30T11:12:07.442Z,0.30
2022-11-30T11:14:39.069Z,0.20
2022-11-30T11:17:23.483Z,0.20
2022-11-30T11:19:53.054Z,0.40
2022-11-30T11:22:24.947Z,0.10
2022-11-30T11:24:57.175Z,0.10
2022-11-30T11:27:30.609Z,0.10
2022-11-30T11:30:09.245Z,0.20
2022-11-30T11:32:38.125Z,0.20
2022-11-30T11:35:35.070Z,0.40
2022-11-30T11:38:04.094Z,0.20
2022-11-30T11:40:33.229Z,0.20
2022-11-30T11:43:04.061Z,0.20
2022-11-30T11:45:39.553Z,0.20
2022-11-30T11:48:31.017Z,0.20
2022-11-30T11:51:07.566Z,0.20
2022-11-30T11:53:53.635Z,0.20
2022-11-30T11:56:26.944Z,0.30
2022-11-30T11:59:00.573Z,0.20
2022-11-30T12:01:47.470Z,0.20
2022-11-30T12:04:37.712Z,0.20
2022-11-30T12:07:18.125Z,0.20
2022-11-30T12:10:12.804Z,0.20
2022-11-30T12:12:55.190Z,0.20
2022-11-30T12:15:31.515Z,0.30
2022-11-30T12:18:15.125Z,0.30
2022-11-30T12:20:55.087Z,0.20
2022-11-30T12:23:56.092Z,0.30
2022-11-30T12:26:35.384Z,0.10
2022-11-30T12:29:20.927Z,0.40
2022-11-30T12:32:14.379Z,0.40
2022-11-30T12:35:16.297Z,0.40
2022-11-30T12:37:54.681Z,0.30
2022-11-30T12:40:34.171Z,0.30
2022-11-30T12:43:14.545Z,0.30
2022-11-30T12:45:46.035Z,0.30
2022-11-30T12:48:28.161Z,0.30
2022-11-30T12:51:10.903Z,0.20
2022-11-30T12:53:45.108Z,0.30
2022-11-30T12:56:29.123Z,0.30
2022-11-30T12:59:07.191Z,0.30
2022-11-30T13:01:49.815Z,0.40
2022-11-30T13:04:25.560Z,0.30
2022-11-30T13:07:04.661Z,0.30
2022-11-30T13:09:38.527Z,0.30
2022-11-30T13:12:12.761Z,0.40
2022-11-30T13:14:41.987Z,1.30
2022-11-30T13:17:18.360Z,0.40
2022-11-30T13:19:54.492Z,0.50
2022-11-30T13:22:34.698Z,0.50
2022-11-30T13:25:17.382Z,0.40
2022-11-30T13:27:56.947Z,0.40
2022-11-30T13:30:37.585Z,0.40
2022-11-30T13:33:38.583Z,0.40
2022-11-30T13:36:21.974Z,0.40
2022-11-30T13:39:24.122Z,0.40
2022-11-30T13:42:08.797Z,0.30
2022-11-30T13:44:39.911Z,0.20
2022-11-30T13:47:20.742Z,0.20
2022-11-30T13:49:57.742Z,0.20
2022-11-30T13:53:03.879Z,0.20
2022-11-30T13:55:59.599Z,0.20
2022-11-30T13:58:32.505Z,0.20
2022-11-30T14:04:33.626Z,0.10
2022-11-30T14:07:02.596Z,0.10
2022-11-30T14:10:08.264Z,0.00
2022-11-30T14:13:01.218Z,0.10
2022-11-30T14:15:53.779Z,0.10
2022-11-30T14:18:32.630Z,0.20
2022-11-30T14:21:03.822Z,0.20
2022-11-30T14:23:44.749Z,0.20
2022-11-30T14:26:15.933Z,0.20
2022-11-30T14:28:53.061Z,0.20
2022-11-30T14:31:26.682Z,0.40
2022-11-30T14:34:05.903Z,0.20
2022-11-30T14:36:39.727Z,0.20
2022-11-30T14:39:25.363Z,0.20
2022-11-30T14:41:54.204Z,0.20
2022-11-30T14:44:24.392Z,0.20
2022-11-30T14:46:53.350Z,0.20
2022-11-30T14:49:24.424Z,0.20
2022-11-30T14:51:58.750Z,0.20
2022-11-30T14:54:51.448Z,0.10
2022-11-30T14:57:28.792Z,0.20
2022-11-30T14:59:59.858Z,0.10
2022-11-30T15:02:34.270Z,0.20
2022-11-30T15:05:03.684Z,0.10
2022-11-30T15:07:32.505Z,0.10
2022-11-30T15:10:06.042Z,0.10
2022-11-30T15:12:36.698Z,0.10
2022-11-30T15:15:15.651Z,0.20
2022-11-30T15:17:49.137Z,0.20
2022-11-30T15:20:26.804Z,0.00
2022-11-30T15:22:58.032Z,0.20
2022-11-30T15:25:33.190Z,0.20
2022-11-30T15:28:04.091Z,0.10
2022-11-30T15:30:37.337Z,0.10
2022-11-30T15:33:06.536Z,0.00
2022-11-30T15:36:04.911Z,0.10
2022-11-30T15:38:27.505Z,0.00
2022-11-30T15:41:03.560Z,0.00
2022-11-30T15:43:37.722Z,0.10
2022-11-30T15:46:25.913Z,0.10
2022-11-30T15:49:07.720Z,-0.10
2022-11-30T15:51:44.188Z,-0.10
2022-11-30T15:54:18.504Z,-0.10
2022-11-30T15:57:02.400Z,0.00
2022-11-30T15:59:34.979Z,0.30
2022-11-30T16:02:14.356Z,-0.10
2022-11-30T16:05:08.382Z,-0.10
2022-11-30T16:07:51.284Z,-0.10
2022-11-30T16:10:31.979Z,-0.20
2022-11-30T16:13:01.126Z,-0.20
2022-11-30T16:15:32.164Z,-0.20
2022-11-30T16:18:14.852Z,-0.20
2022-11-30T16:20:44.878Z,0.00
2022-11-30T16:23:16.205Z,-0.20
2022-11-30T16:25:51.907Z,-0.20
2022-11-30T16:28:22.477Z,-0.20
2022-11-30T16:30:57.993Z,0.30
2022-11-30T16:33:32.902Z,-0.30
2022-11-30T16:36:04.481Z,-0.20
2022-11-30T16:38:33.201Z,-0.20
2022-11-30T16:41:17.285Z,-0.20
2022-11-30T16:43:50.070Z,0.00
2022-11-30T16:46:20.965Z,-0.10
2022-11-30T16:48:52.427Z,0.10
2022-11-30T16:51:23.951Z,0.00
2022-11-30T16:53:52.692Z,0.20
2022-11-30T16:56:21.885Z,0.00
2022-11-30T16:58:51.336Z,0.00
2022-11-30T17:01:34.504Z,-0.10
2022-11-30T17:04:11.424Z,0.00
2022-11-30T17:06:45.898Z,0.00
2022-11-30T17:09:19.022Z,0.00
2022-11-30T17:11:50.395Z,0.10
2022-11-30T17:14:22.094Z,0.10
2022-11-30T17:16:52.201Z,0.10
2022-11-30T17:19:23.982Z,0.20
2022-11-30T17:21:56.079Z,0.60
2022-11-30T17:24:24.852Z,0.20
2022-11-30T17:26:53.506Z,0.20
2022-11-30T17:29:22.068Z,1.30
2022-11-30T17:31:50.765Z,0.20
2022-11-30T17:34:19.453Z,0.20
2022-11-30T17:36:51.081Z,0.20
2022-11-30T17:39:19.627Z,0.20
2022-11-30T17:41:48.109Z,0.20
2022-11-30T17:44:16.977Z,0.20
2022-11-30T17:46:48.359Z,0.30
2022-11-30T17:49:20.284Z,0.30
2022-11-30T17:51:50.630Z,0.30
2022-11-30T17:54:19.636Z,0.40
2022-11-30T17:56:48.197Z,0.30
2022-11-30T17:59:16.849Z,0.30
2022-11-30T18:01:46.683Z,0.20
2022-11-30T18:04:16.038Z,0.20
2022-11-30T18:06:45.088Z,0.20
2022-11-30T18:09:20.354Z,0.20
2022-11-30T18:11:52.289Z,0.20
2022-11-30T18:14:21.237Z,0.10
2022-11-30T18:16:49.948Z,0.70
2022-11-30T18:19:19.013Z,0.10
2022-11-30T18:21:47.897Z,0.10
2022-11-30T18:24:21.187Z,0.10
2022-11-30T18:26:53.813Z,0.10
2022-11-30T18:29:22.446Z,0.20
2022-11-30T18:31:51.440Z,0.20
2022-11-30T18:34:20.275Z,0.20
2022-11-30T18:36:49.001Z,0.20
2022-11-30T18:39:19.525Z,0.30
2022-11-30T18:41:50.710Z,0.30
2022-11-30T18:44:19.633Z,0.30
2022-11-30T18:46:48.233Z,0.20
2022-11-30T18:49:20.217Z,0.20
2022-11-30T18:51:51.203Z,0.20
2022-11-30T18:54:21.318Z,1.30
2022-11-30T18:56:50.262Z,0.10
2022-11-30T18:59:20.026Z,0.20
2022-11-30T19:01:51.106Z,0.20
2022-11-30T19:04:26.045Z,0.30
2022-11-30T19:06:54.833Z,0.20
2022-11-30T19:09:25.224Z,0.20
2022-11-30T19:11:54.111Z,0.20
2022-11-30T19:14:26.242Z,0.20
2022-11-30T19:16:54.892Z,0.20
2022-11-30T19:19:23.495Z,0.20
2022-11-30T19:21:54.966Z,0.20
2022-11-30T19:24:25.481Z,0.10
2022-11-30T19:26:54.219Z,0.20
2022-11-30T19:29:31.669Z,0.10
2022-11-30T19:32:00.485Z,0.10
2022-11-30T19:34:29.153Z,0.10
2022-11-30T19:36:58.199Z,0.00
2022-11-30T19:39:30.518Z,0.00
2022-11-30T19:41:59.359Z,0.10
2022-11-30T19:44:28.159Z,0.00
2022-11-30T19:46:57.314Z,0.10
2022-11-30T19:49:29.231Z,0.10
2022-11-30T19:52:00.610Z,0.10
2022-11-30T19:54:31.303Z,0.10
2022-11-30T19:56:59.932Z,0.40
2022-11-30T19:59:28.638Z,0.20
2022-11-30T20:01:57.637Z,0.20
2022-11-30T20:04:26.214Z,0.30
2022-11-30T20:06:54.932Z,0.30
2022-11-30T20:09:23.740Z,0.30
2022-11-30T20:11:54.619Z,0.30
2022-11-30T20:14:23.551Z,0.30
2022-11-30T20:16:53.134Z,0.70
2022-11-30T20:19:22.024Z,0.40
2022-11-30T20:21:53.807Z,0.40
2022-11-30T20:24:22.486Z,0.50
2022-11-30T20:26:51.221Z,0.40
2022-11-30T20:29:30.671Z,0.40
2022-11-30T20:31:59.521Z,0.40
2022-11-30T20:34:33.994Z,0.40
2022-11-30T20:37:03.631Z,0.50
2022-11-30T20:39:45.315Z,0.90
2022-11-30T20:42:16.589Z,0.50
2022-11-30T20:44:51.839Z,0.50
2022-11-30T20:47:20.430Z,0.80
2022-11-30T20:49:52.506Z,0.60
2022-11-30T20:52:21.303Z,0.60
2022-11-30T20:54:51.060Z,0.60
2022-11-30T20:57:23.281Z,0.60
2022-11-30T20:59:53.362Z,0.60
2022-11-30T21:02:22.223Z,0.60
2022-11-30T21:05:15.601Z,0.70
2022-11-30T21:07:44.347Z,0.60
2022-11-30T21:10:16.264Z,0.80
2022-11-30T21:12:46.611Z,0.70
2022-11-30T21:15:16.777Z,0.70
2022-11-30T21:17:45.326Z,0.70
2022-11-30T21:20:14.089Z,0.80
2022-11-30T21:22:42.708Z,0.90
2022-11-30T21:25:11.662Z,0.90
2022-11-30T21:27:40.475Z,0.80
2022-11-30T21:30:10.494Z,0.90
2022-11-30T21:32:40.494Z,0.80
2022-11-30T21:35:10.219Z,0.90
2022-11-30T21:37:42.046Z,0.90
2022-11-30T21:40:12.209Z,1.00
2022-11-30T21:42:42.186Z,0.90
2022-11-30T21:45:12.474Z,0.90
2022-11-30T21:47:42.635Z,0.90
2022-11-30T21:50:12.226Z,0.90
2022-11-30T21:52:41.788Z,1.00
2022-11-30T21:55:10.852Z,1.00
2022-11-30T21:57:39.485Z,1.00
2022-11-30T22:00:10.576Z,1.00
2022-11-30T22:02:39.386Z,1.00
2022-11-30T22:05:10.064Z,0.90
2022-11-30T22:07:38.963Z,0.90
2022-11-30T22:10:08.822Z,1.00
2022-11-30T22:12:37.555Z,1.00
2022-11-30T22:15:06.827Z,1.00
2022-11-30T22:17:35.717Z,1.00
2022-11-30T22:20:04.648Z,1.00
2022-11-30T22:22:34.960Z,1.10
2022-11-30T22:25:03.758Z,1.10
2022-11-30T22:27:33.121Z,1.00
2022-11-30T22:30:06.038Z,1.00
2022-11-30T22:32:37.335Z,1.00
2022-11-30T22:35:09.591Z,1.10
2022-11-30T22:37:40.091Z,1.00
2022-11-30T22:40:11.560Z,1.00
2022-11-30T22:42:40.484Z,1.00
2022-11-30T22:45:10.146Z,1.00
2022-11-30T22:47:38.964Z,1.00
2022-11-30T22:50:11.377Z,1.00
2022-11-30T22:53:02.403Z,1.00
2022-11-30T22:55:31.945Z,1.00
2022-11-30T22:58:00.895Z,1.00
2022-11-30T23:00:29.838Z,1.00
2022-11-30T23:03:01.385Z,1.20
2022-11-30T23:05:30.147Z,1.10
2022-11-30T23:08:00.631Z,1.10
2022-11-30T23:10:29.246Z,1.00
2022-11-30T23:12:59.932Z,1.10
2022-11-30T23:15:29.356Z,1.10
2022-11-30T23:17:58.054Z,1.10
2022-11-30T23:20:26.671Z,1.10
2022-11-30T23:22:55.554Z,1.10
2022-11-30T23:25:25.688Z,1.10
2022-11-30T23:27:54.290Z,1.10
2022-11-30T23:30:24.077Z,1.10
2022-11-30T23:32:56.155Z,1.10
2022-11-30T23:35:26.303Z,1.10
2022-11-30T23:37:55.501Z,1.20
2022-11-30T23:40:26.098Z,1.10
2022-11-30T23:42:54.675Z,1.20
2022-11-30T23:45:23.405Z,1.10
2022-11-30T23:47:52.021Z,1.20
2022-11-30T23:50:21.106Z,1.10
2022-11-30T23:52:50.825Z,1.10
2022-11-30T23:55:19.939Z,1.10
2022-11-30T23:57:50.128Z,1.10
